Observation data for Turkey on 06/20/2019      Previous  Date       Current Mesonet Observations  Soil Data  Daily Summary Page  Observations in Plain Language
KTUR 200500Z 12006KT 24/17 A2982 RMK A01 T02350171  RH  069%=      5-min Rain = 0
KTUR 200505Z 13006KT 24/17 A2981 RMK A01 T02350172  RH  069%=      5-min Rain = 0
KTUR 200510Z 13006KT 24/17 A2981 RMK A01 T02350173  RH  070%=      5-min Rain = 0
KTUR 200515Z 13006KT 23/17 A2981 RMK A01 T02330174  RH  071%=      5-min Rain = 0
KTUR 200520Z 13006KT 23/17 A2981 RMK A01 T02320174  RH  072%=      5-min Rain = 0
KTUR 200525Z 14005KT 23/18 A2981 RMK A01 T02310175  RH  072%=      5-min Rain = 0
KTUR 200530Z 13006KT 23/18 A2981 RMK A01 T02310175  RH  073%=      5-min Rain = 0
KTUR 200535Z 13006KT 23/17 A2981 RMK A01 T02310174  RH  072%=      5-min Rain = 0
KTUR 200540Z 13006KT 23/18 A2981 RMK A01 T02320175  RH  072%=      5-min Rain = 0
KTUR 200545Z 14005KT 23/18 A2981 RMK A01 T02300175  RH  073%=      5-min Rain = 0
KTUR 200550Z 14006KT 23/18 A2981 RMK A01 T02290175  RH  073%=      5-min Rain = 0
KTUR 200555Z 15006KT 23/17 A2981 RMK A01 T02280174  RH  073%=      5-min Rain = 0
KTUR 200600Z 15006KT 23/17 A2981 RMK A01 T02280174  RH  074%=      5-min Rain = 0
KTUR 200605Z 14006KT 23/18 A2981 RMK A01 T02280175  RH  074%=      5-min Rain = 0
KTUR 200610Z 15006KT 23/18 A2981 RMK A01 T02280175  RH  074%=      5-min Rain = 0
KTUR 200615Z 16007KT 23/18 A2981 RMK A01 T02290175  RH  074%=      5-min Rain = 0
KTUR 200620Z 16007KT 23/18 A2981 RMK A01 T02270176  RH  075%=      5-min Rain = 0
KTUR 200625Z 17007KT 22/18 A2981 RMK A01 T02240176  RH  076%=      5-min Rain = 0
KTUR 200630Z 17007KT 22/18 A2981 RMK A01 T02200177  RH  078%=      5-min Rain = 0
KTUR 200635Z 16007KT 22/18 A2981 RMK A01 T02180177  RH  080%=      5-min Rain = 0
KTUR 200640Z 15006KT 22/18 A2981 RMK A01 T02190179  RH  080%=      5-min Rain = 0
KTUR 200645Z 16005KT 22/18 A2981 RMK A01 T02200180  RH  080%=      5-min Rain = 0
KTUR 200650Z 16005KT 22/18 A298 RMK A01 T02200180  RH  080%=      5-min Rain = 0
KTUR 200655Z 17005KT 22/18 A298 RMK A01 T02160180  RH  082%=      5-min Rain = 0
KTUR 200700Z 17006KT 21/18 A298 RMK A01 T02110179  RH  084%=      5-min Rain = 0
KTUR 200705Z 16006KT 21/18 A298 RMK A01 T02110180  RH  085%=      5-min Rain = 0
KTUR 200710Z 16005KT 21/18 A298 RMK A01 T02130182  RH  084%=      5-min Rain = 0
KTUR 200715Z 16005KT 22/18 A298 RMK A01 T02150183  RH  084%=      5-min Rain = 0
KTUR 200720Z 16005KT 22/18 A298 RMK A01 T02160184  RH  084%=      5-min Rain = 0
KTUR 200725Z 15004KT 22/18 A298 RMK A01 T02180184  RH  083%=      5-min Rain = 0
KTUR 200730Z 15005KT 22/18 A298 RMK A01 T02190184  RH  083%=      5-min Rain = 0
KTUR 200735Z 15006KT 22/18 A298 RMK A01 T02180184  RH  083%=      5-min Rain = 0
KTUR 200740Z 15006KT 22/18 A298 RMK A01 T02190184  RH  083%=      5-min Rain = 0
KTUR 200745Z 16007KT 22/18 A298 RMK A01 T02180184  RH  083%=      5-min Rain = 0
KTUR 200750Z 16007KT 22/18 A298 RMK A01 T02190184  RH  083%=      5-min Rain = 0
KTUR 200755Z 16008KT 22/18 A298 RMK A01 T02180184  RH  083%=      5-min Rain = 0
KTUR 200800Z 16006KT 22/18 A298 RMK A01 T02180184  RH  083%=      5-min Rain = 0
KTUR 200805Z 17005KT 22/18 A298 RMK A01 T02180184  RH  083%=      5-min Rain = 0
KTUR 200810Z 16005KT 22/18 A298 RMK A01 T02160184  RH  084%=      5-min Rain = 0
KTUR 200815Z 16006KT 22/18 A298 RMK A01 T02150184  RH  084%=      5-min Rain = 0
KTUR 200820Z 15008KT 22/18 A298 RMK A01 T02170184  RH  084%=      5-min Rain = 0
KTUR 200825Z 16009KT 22/19 A298 RMK A01 T02200185  RH  083%=      5-min Rain = 0
KTUR 200830Z 16009KT 22/19 A298 RMK A01 T02210185  RH  082%=      5-min Rain = 0
KTUR 200835Z 17009KT 22/19 A298 RMK A01 T02200185  RH  083%=      5-min Rain = 0
KTUR 200840Z 16008KT 22/19 A2979 RMK A01 T02180185  RH  083%=      5-min Rain = 0
KTUR 200845Z 16009KT 22/19 A2979 RMK A01 T02180185  RH  084%=      5-min Rain = 0
KTUR 200850Z 16010KT 22/19 A2979 RMK A01 T02190186  RH  084%=      5-min Rain = 0
KTUR 200855Z 16009KT 22/19 A2979 RMK A01 T02210187  RH  083%=      5-min Rain = 0
KTUR 200900Z 16008KT 22/19 A2979 RMK A01 T02190187  RH  084%=      5-min Rain = 0
KTUR 200905Z 17007KT 22/19 A298 RMK A01 T02180187  RH  085%=      5-min Rain = 0
KTUR 200910Z 17007KT 22/19 A298 RMK A01 T02170188  RH  085%=      5-min Rain = 0
KTUR 200915Z 17008KT 22/19 A2979 RMK A01 T02160188  RH  086%=      5-min Rain = 0
KTUR 200920Z 16007KT 21/19 A2979 RMK A01 T02140187  RH  087%=      5-min Rain = 0
KTUR 200925Z 16007KT 21/19 A2978 RMK A01 T02120187  RH  087%=      5-min Rain = 0
KTUR 200930Z 16008KT 21/19 A2978 RMK A01 T02130187  RH  087%=      5-min Rain = 0
KTUR 200935Z 16008KT 21/19 A2979 RMK A01 T02130187  RH  087%=      5-min Rain = 0
KTUR 200940Z 17008KT 22/19 A2978 RMK A01 T02150188  RH  087%=      5-min Rain = 0
KTUR 200945Z 17007KT 22/19 A2978 RMK A01 T02160188  RH  086%=      5-min Rain = 0
KTUR 200950Z 16007KT 22/19 A2978 RMK A01 T02150187  RH  086%=      5-min Rain = 0
KTUR 200955Z 16007KT 21/19 A2978 RMK A01 T02130187  RH  087%=      5-min Rain = 0
KTUR 201000Z 17006KT 21/19 A2978 RMK A01 T02120187  RH  088%=      5-min Rain = 0
KTUR 201005Z 17005KT 21/19 A2978 RMK A01 T02120187  RH  088%=      5-min Rain = 0
KTUR 201010Z 17004KT 21/19 A2978 RMK A01 T02100186  RH  088%=      5-min Rain = 0
KTUR 201015Z 17004KT 21/19 A2978 RMK A01 T02090186  RH  089%=      5-min Rain = 0
KTUR 201020Z 17003KT 21/19 A2978 RMK A01 T02080185  RH  089%=      5-min Rain = 0
KTUR 201025Z 18001KT 21/18 A2978 RMK A01 T02080184  RH  089%=      5-min Rain = 0
KTUR 201030Z 00002KT 20/18 A2978 RMK A01 T02030181  RH  089%=      5-min Rain = 0
KTUR 201035Z 00003KT 20/18 A2978 RMK A01 T01990181  RH  092%=      5-min Rain = 0
KTUR 201040Z 02002KT 20/18 A2978 RMK A01 T01990182  RH  093%=      5-min Rain = 0
KTUR 201045Z 03002KT 20/18 A2978 RMK A01 T02000183  RH  092%=      5-min Rain = 0
KTUR 201050Z 06002KT 20/18 A2978 RMK A01 T02020184  RH  092%=      5-min Rain = 0
KTUR 201055Z 07002KT 20/19 A2978 RMK A01 T02040185  RH  091%=      5-min Rain = 0
KTUR 201100Z 07002KT 21/19 A2978 RMK A01 T02070185  RH  090%=      5-min Rain = 0
KTUR 201105Z 08002KT 21/19 A2978 RMK A01 T02070185  RH  089%=      5-min Rain = 0
KTUR 201110Z 08002KT 21/19 A2978 RMK A01 T02080186  RH  089%=      5-min Rain = 0
KTUR 201115Z 08003KT 21/19 A2978 RMK A01 T02090186  RH  089%=      5-min Rain = 0
KTUR 201120Z 08003KT 21/19 A2978 RMK A01 T02100186  RH  088%=      5-min Rain = 0
KTUR 201125Z 08003KT 21/19 A2978 RMK A01 T02090185  RH  089%=      5-min Rain = 0
KTUR 201130Z 07004KT 21/19 A2978 RMK A01 T02080186  RH  089%=      5-min Rain = 0
KTUR 201135Z 07004KT 21/18 A2978 RMK A01 T02060184  RH  089%=      5-min Rain = 0
KTUR 201140Z 08003KT 20/18 A2978 RMK A01 T02040184  RH  090%=      5-min Rain = 0
KTUR 201145Z 09003KT 20/19 A2978 RMK A01 T02040185  RH  091%=      5-min Rain = 0
KTUR 201150Z 08003KT 20/18 A2978 RMK A01 T02040184  RH  091%=      5-min Rain = 0
KTUR 201155Z 04003KT 20/18 A2978 RMK A01 T02010182  RH  091%=      5-min Rain = 0
KTUR 201200Z 03003KT 20/18 A2978 RMK A01 T01980180  RH  092%=      5-min Rain = 0
KTUR 201205Z 03002KT 20/18 A2978 RMK A01 T01970180  RH  092%=      5-min Rain = 0
KTUR 201210Z 00002KT 20/18 A2978 RMK A01 T01970181  RH  093%=      5-min Rain = 0
KTUR 201215Z 02003KT 20/18 A2978 RMK A01 T01980182  RH  093%=      5-min Rain = 0
KTUR 201220Z 03003KT 20/18 A2978 RMK A01 T01990182  RH  092%=      5-min Rain = 0
KTUR 201225Z 06003KT 20/18 A2978 RMK A01 T02010184  RH  092%=      5-min Rain = 0
KTUR 201230Z 07003KT 21/19 A2978 RMK A01 T02060186  RH  090%=      5-min Rain = 0
KTUR 201235Z 07003KT 21/19 A2978 RMK A01 T02110187  RH  088%=      5-min Rain = 0
KTUR 201240Z 06001KT 22/19 A2978 RMK A01 T02160188  RH  086%=      5-min Rain = 0
KTUR 201245Z 35002KT 22/19 A2978 RMK A01 T02180189  RH  086%=      5-min Rain = 0
KTUR 201250Z 31005KT 21/19 A2979 RMK A01 T02120188  RH  088%=      5-min Rain = 0
KTUR 201255Z 31005KT 21/19 A298 RMK A01 T02110188  RH  089%=      5-min Rain = 0
KTUR 201300Z 33002KT 21/19 A2979 RMK A01 T02130188  RH  088%=      5-min Rain = 0
KTUR 201305Z 34002KT 22/19 A2979 RMK A01 T02180189  RH  086%=      5-min Rain = 0
KTUR 201310Z 35001KT 22/19 A2979 RMK A01 T02210189  RH  084%=      5-min Rain = 0
KTUR 201315Z 35000KT 23/19 A2979 RMK A01 T02290192  RH  082%=      5-min Rain = 0
KTUR 201320Z 10001KT 24/19 A2979 RMK A01 T02360188  RH  077%=      5-min Rain = 0
KTUR 201325Z 10002KT 24/19 A2979 RMK A01 T02350187  RH  077%=      5-min Rain = 0
KTUR 201330Z 12001KT 24/19 A2979 RMK A01 T02370186  RH  075%=      5-min Rain = 0
KTUR 201335Z 11003KT 24/19 A2979 RMK A01 T02370186  RH  075%=      5-min Rain = 0
KTUR 201340Z 12002KT 24/19 A2979 RMK A01 T02360187  RH  076%=      5-min Rain = 0
KTUR 201350Z 12003KT 24/18 A2979 RMK A01 T02400184  RH  073%=      5-min Rain = 0
KTUR 201355Z 13002KT 24/18 A2979 RMK A01 T02410184  RH  072%=      5-min Rain = 0
KTUR 201400Z 13001KT 24/18 A2979 RMK A01 T02440184  RH  071%=      5-min Rain = 0
KTUR 201405Z 13001KT 25/18 A2979 RMK A01 T02460183  RH  070%=      5-min Rain = 0
KTUR 201410Z 15002KT 25/18 A2979 RMK A01 T02460182  RH  069%=      5-min Rain = 0
KTUR 201415Z 18001KT 25/18 A2979 RMK A01 T02460184  RH  070%=      5-min Rain = 0
KTUR 201420Z 12003KT 25/19 A2979 RMK A01 T02500185  RH  069%=      5-min Rain = 0
KTUR 201425Z 12003KT 25/18 A2979 RMK A01 T02490183  RH  068%=      5-min Rain = 0
KTUR 201430Z 10003KT 25/18 A2979 RMK A01 T02530183  RH  067%=      5-min Rain = 0
KTUR 201435Z 15003KT 26/18 A2979 RMK A01 T02550181  RH  065%=      5-min Rain = 0
KTUR 201440Z 17003KT 25/18 A2979 RMK A01 T02530181  RH  066%=      5-min Rain = 0
KTUR 201445Z 17002KT 26/18 A2979 RMK A01 T02550183  RH  066%=      5-min Rain = 0
KTUR 201450Z 16003KT 26/18 A2979 RMK A01 T02570182  RH  065%=      5-min Rain = 0
KTUR 201455Z 17003KT 26/18 A2979 RMK A01 T02570182  RH  065%=      5-min Rain = 0
KTUR 201500Z 19002KT 26/18 A2979 RMK A01 T02600184  RH  065%=      5-min Rain = 0
KTUR 201505Z 18002KT 26/19 A2979 RMK A01 T02640185  RH  064%=      5-min Rain = 0
KTUR 201510Z 16004KT 26/19 A2979 RMK A01 T02620185  RH  064%=      5-min Rain = 0
KTUR 201515Z 12001KT 27/19 A2979 RMK A01 T02670185  RH  062%=      5-min Rain = 0
KTUR 201520Z 16004KT 27/18 A2979 RMK A01 T02710184  RH  061%=      5-min Rain = 0
KTUR 201525Z 23002KT 27/18 A2979 RMK A01 T02720183  RH  060%=      5-min Rain = 0
KTUR 201530Z 23002KT 28/19 A2979 RMK A01 T02750186  RH  060%=      5-min Rain = 0
KTUR 201535Z 20003KT 28/18 A2978 RMK A01 T02770184  RH  058%=      5-min Rain = 0
KTUR 201540Z 18002KT 28/19 A2979 RMK A01 T02790186  RH  058%=      5-min Rain = 0
KTUR 201545Z 20002KT 28/19 A2978 RMK A01 T02820185  RH  057%=      5-min Rain = 0
KTUR 201550Z 16003KT 28/19 A2978 RMK A01 T02820186  RH  057%=      5-min Rain = 0
KTUR 201555Z 18002KT 29/19 A2978 RMK A01 T02880187  RH  056%=      5-min Rain = 0
KTUR 201600Z 19003KT 29/19 A2978 RMK A01 T02870186  RH  056%=      5-min Rain = 0
KTUR 201605Z 20003KT 29/18 A2978 RMK A01 T02880184  RH  055%=      5-min Rain = 0
KTUR 201610Z 20004KT 29/19 A2978 RMK A01 T02890186  RH  055%=      5-min Rain = 0
KTUR 201615Z 19003KT 29/18 A2978 RMK A01 T02910183  RH  054%=      5-min Rain = 0
KTUR 201620Z 21003KT 29/18 A2978 RMK A01 T02940181  RH  052%=      5-min Rain = 0
KTUR 201625Z 26003KT 30/18 A2978 RMK A01 T02980181  RH  051%=      5-min Rain = 0
KTUR 201630Z 20004KT 30/18 A2978 RMK A01 T02970181  RH  051%=      5-min Rain = 0
KTUR 201635Z 16003KT 30/18 A2978 RMK A01 T02990182  RH  051%=      5-min Rain = 0
KTUR 201640Z 18001KT 31/18 A2978 RMK A01 T03060183  RH  049%=      5-min Rain = 0
KTUR 201645Z 23003KT 31/18 A2978 RMK A01 T03080183  RH  049%=      5-min Rain = 0
KTUR 201650Z 16002KT 31/19 A2978 RMK A01 T03120188  RH  049%=      5-min Rain = 0
KTUR 201655Z 11002KT 31/19 A2978 RMK A01 T03130186  RH  048%=      5-min Rain = 0
KTUR 201700Z 18002KT 31/18 A2978 RMK A01 T03140181  RH  047%=      5-min Rain = 0
KTUR 201705Z 17004KT 32/19 A2978 RMK A01 T03160185  RH  047%=      5-min Rain = 0
KTUR 201710Z 19001KT 32/18 A2978 RMK A01 T03180179  RH  045%=      5-min Rain = 0
KTUR 201715Z 18003KT 32/18 A2978 RMK A01 T03210179  RH  044%=      5-min Rain = 0
KTUR 201720Z 20004KT 32/18 A2978 RMK A01 T03200179  RH  044%=      5-min Rain = 0
KTUR 201725Z 20005KT 32/18 A2978 RMK A01 T03220181  RH  044%=      5-min Rain = 0
KTUR 201730Z 21004G9KT 32/18 A2978 RMK A01 T03240178  RH  043%=      5-min Rain = 0
KTUR 201735Z 21006KT 33/18 A2978 RMK A01 T03290178  RH  042%=      5-min Rain = 0
KTUR 201740Z 19006KT 33/18 A2978 RMK A01 T03320176  RH  041%=      5-min Rain = 0
KTUR 201745Z 19005KT 34/18 A2978 RMK A01 T03350178  RH  041%=      5-min Rain = 0
KTUR 201750Z 19006KT 33/18 A2978 RMK A01 T03340182  RH  042%=      5-min Rain = 0
KTUR 201755Z 15005G10KT 34/18 A2978 RMK A01 T03360180  RH  041%=      5-min Rain = 0
KTUR 201800Z 16008KT 34/18 A2977 RMK A01 T03400179  RH  040%=      5-min Rain = 0
KTUR 201805Z 16003KT 34/18 A2977 RMK A01 T03390180  RH  040%=      5-min Rain = 0
KTUR 201810Z 15004KT 34/18 A2977 RMK A01 T03430184  RH  040%=      5-min Rain = 0
KTUR 201815Z 13006KT 34/19 A2977 RMK A01 T03430188  RH  041%=      5-min Rain = 0
KTUR 201820Z 18006KT 34/18 A2977 RMK A01 T03430180  RH  039%=      5-min Rain = 0
KTUR 201825Z 14004G9KT 34/18 A2977 RMK A01 T03430184  RH  040%=      5-min Rain = 0
KTUR 201830Z 14006KT 35/19 A2977 RMK A01 T03470189  RH  041%=      5-min Rain = 0
KTUR 201835Z 13007KT 35/19 A2977 RMK A01 T03480189  RH  040%=      5-min Rain = 0
KTUR 201840Z 13004KT 35/19 A2977 RMK A01 T03480186  RH  040%=      5-min Rain = 0
KTUR 201845Z 08005KT 35/19 A2976 RMK A01 T03520188  RH  039%=      5-min Rain = 0
KTUR 201850Z 12007G12KT 35/19 A2976 RMK A01 T03540186  RH  038%=      5-min Rain = 0
KTUR 201855Z 15007KT 36/19 A2976 RMK A01 T03550185  RH  038%=      5-min Rain = 0
KTUR 201900Z 13003KT 36/18 A2976 RMK A01 T03560176  RH  036%=      5-min Rain = 0
KTUR 201905Z 14008G14KT 36/18 A2976 RMK A01 T03610183  RH  036%=      5-min Rain = 0
KTUR 201910Z 14004G9KT 36/17 A2976 RMK A01 T03610172  RH  034%=      5-min Rain = 0
KTUR 201915Z 16005KT 36/17 A2975 RMK A01 T03640173  RH  033%=      5-min Rain = 0
KTUR 201920Z 13006G13KT 37/18 A2975 RMK A01 T03670180  RH  034%=      5-min Rain = 0
KTUR 201925Z 14007G12KT 37/18 A2975 RMK A01 T03650177  RH  034%=      5-min Rain = 0
KTUR 201930Z 13010G15KT 37/18 A2975 RMK A01 T03680175  RH  033%=      5-min Rain = 0
KTUR 201935Z 13007KT 37/16 A2975 RMK A01 T03700162  RH  030%=      5-min Rain = 0
KTUR 201940Z 10006G11KT 37/17 A2974 RMK A01 T03710165  RH  031%=      5-min Rain = 0
KTUR 201945Z 13009G15KT 37/17 A2974 RMK A01 T03730172  RH  031%=      5-min Rain = 0
KTUR 201950Z 14008KT 37/18 A2974 RMK A01 T03740180  RH  033%=      5-min Rain = 0
KTUR 201955Z 13011G16KT 38/16 A2974 RMK A01 T03750163  RH  029%=      5-min Rain = 0
KTUR 202000Z 14011KT 38/16 A2973 RMK A01 T03780161  RH  029%=      5-min Rain = 0
KTUR 202005Z 11010KT 37/18 A2973 RMK A01 T03740176  RH  032%=      5-min Rain = 0
KTUR 202010Z 12013KT 38/17 A2973 RMK A01 T03750173  RH  031%=      5-min Rain = 0
KTUR 202015Z 12012G19KT 37/17 A2973 RMK A01 T03730169  RH  031%=      5-min Rain = 0
KTUR 202020Z 12010G17KT 37/17 A2973 RMK A01 T03730171  RH  031%=      5-min Rain = 0
KTUR 202025Z 14013KT 38/17 A2972 RMK A01 T03770168  RH  030%=      5-min Rain = 0
KTUR 202030Z 14012KT 38/17 A2972 RMK A01 T03780167  RH  030%=      5-min Rain = 0
KTUR 202035Z 15014G21KT 38/16 A2972 RMK A01 T03790162  RH  029%=      5-min Rain = 0
KTUR 202040Z 15011G20KT 38/16 A2972 RMK A01 T03810157  RH  027%=      5-min Rain = 0
KTUR 202045Z 16009G15KT 38/16 A2972 RMK A01 T03790159  RH  028%=      5-min Rain = 0
KTUR 202050Z 16012G17KT 38/16 A2972 RMK A01 T03790159  RH  028%=      5-min Rain = 0
KTUR 202055Z 16010G16KT 38/16 A2972 RMK A01 T03790158  RH  028%=      5-min Rain = 0
KTUR 202100Z 14015KT 38/16 A2971 RMK A01 T03840155  RH  026%=      5-min Rain = 0
KTUR 202105Z 14015G21KT 38/15 A2971 RMK A01 T03810154  RH  027%=      5-min Rain = 0
KTUR 202110Z 15014G20KT 38/15 A2971 RMK A01 T03810150  RH  026%=      5-min Rain = 0
KTUR 202115Z 15013G18KT 38/15 A2971 RMK A01 T03810153  RH  027%=      5-min Rain = 0
KTUR 202120Z 14014G19KT 39/15 A2971 RMK A01 T03850152  RH  026%=      5-min Rain = 0
KTUR 202125Z 13016KT 38/15 A2971 RMK A01 T03830148  RH  026%=      5-min Rain = 0
KTUR 202130Z 13018G26KT 39/14 A2971 RMK A01 T03870140  RH  024%=      5-min Rain = 0
KTUR 202135Z 14018G23KT 38/11 A297 RMK A01 T03840113  RH  020%=      5-min Rain = 0
KTUR 202140Z 14018G24KT 38/12 A297 RMK A01 T03840119  RH  021%=      5-min Rain = 0
KTUR 202145Z 13017G23KT 38/12 A297 RMK A01 T03840116  RH  021%=      5-min Rain = 0
KTUR 202150Z 13016KT 38/11 A297 RMK A01 T03830107  RH  019%=      5-min Rain = 0
KTUR 202155Z 15015G21KT 39/10 A297 RMK A01 T03880096  RH  018%=      5-min Rain = 0
KTUR 202200Z 15018KT 39/09 A2969 RMK A01 T03890088  RH  017%=      5-min Rain = 0
KTUR 202205Z 14017KT 39/09 A2969 RMK A01 T03860088  RH  017%=      5-min Rain = 0
KTUR 202210Z 15016KT 39/08 A2969 RMK A01 T03850081  RH  016%=      5-min Rain = 0
KTUR 202215Z 14016KT 39/09 A2969 RMK A01 T03910088  RH  016%=      5-min Rain = 0
KTUR 202220Z 14018KT 39/09 A2969 RMK A01 T03850092  RH  017%=      5-min Rain = 0
KTUR 202225Z 14019KT 39/09 A2969 RMK A01 T03850087  RH  017%=      5-min Rain = 0
KTUR 202230Z 14015G20KT 39/09 A2969 RMK A01 T03880091  RH  017%=      5-min Rain = 0
KTUR 202235Z 14016G22KT 39/08 A2969 RMK A01 T03910078  RH  015%=      5-min Rain = 0
KTUR 202240Z 15017G22KT 39/06 A2969 RMK A01 T03900064  RH  014%=      5-min Rain = 0
KTUR 202245Z 13017KT 39/07 A2969 RMK A01 T03910070  RH  015%=      5-min Rain = 0
KTUR 202250Z 15014G19KT 39/07 A2969 RMK A01 T03930067  RH  014%=      5-min Rain = 0
KTUR 202255Z 14014KT 39/07 A2969 RMK A01 T03910068  RH  014%=      5-min Rain = 0
KTUR 202300Z 14014G19KT 39/07 A2969 RMK A01 T03900073  RH  015%=      5-min Rain = 0
KTUR 202305Z 14015G20KT 39/07 A2968 RMK A01 T03890071  RH  015%=      5-min Rain = 0
KTUR 202310Z 14015KT 39/07 A2968 RMK A01 T03850070  RH  015%=      5-min Rain = 0
KTUR 202315Z 14016KT 38/07 A2968 RMK A01 T03790069  RH  015%=      5-min Rain = 0
KTUR 202320Z 14017G23KT 38/06 A2968 RMK A01 T03760063  RH  015%=      5-min Rain = 0
KTUR 202325Z 14015KT 37/07 A2968 RMK A01 T03740065  RH  015%=      5-min Rain = 0
KTUR 202330Z 14013KT 38/07 A2968 RMK A01 T03760068  RH  015%=      5-min Rain = 0
KTUR 202335Z 14013KT 38/07 A2968 RMK A01 T03820074  RH  016%=      5-min Rain = 0
KTUR 202340Z 14015KT 38/08 A2968 RMK A01 T03830075  RH  016%=      5-min Rain = 0
KTUR 202345Z 14014KT 38/08 A2968 RMK A01 T03820076  RH  016%=      5-min Rain = 0
KTUR 202350Z 13013G18KT 38/07 A2967 RMK A01 T03810074  RH  016%=      5-min Rain = 0
KTUR 202355Z 14014KT 38/07 A2967 RMK A01 T03800069  RH  015%=      5-min Rain = 0
KTUR 210000Z 14013KT 37/07 A2967 RMK A01 T03730067  RH  016%=      5-min Rain = 0
KTUR 210005Z 14013KT 37/07 A2967 RMK A01 T03710070  RH  016%=      5-min Rain = 0
KTUR 210010Z 13011KT 37/08 A2967 RMK A01 T03720077  RH  017%=      5-min Rain = 0
KTUR 210015Z 13016KT 37/07 A2967 RMK A01 T03730072  RH  016%=      5-min Rain = 0
KTUR 210020Z 13014KT 38/07 A2967 RMK A01 T03750068  RH  016%=      5-min Rain = 0
KTUR 210025Z 12013KT 37/08 A2967 RMK A01 T03730083  RH  018%=      5-min Rain = 0
KTUR 210030Z 12012KT 37/11 A2967 RMK A01 T03670107  RH  021%=      5-min Rain = 0
KTUR 210035Z 12010KT 36/11 A2967 RMK A01 T03640113  RH  022%=      5-min Rain = 0
KTUR 210040Z 12012KT 36/12 A2967 RMK A01 T03620118  RH  024%=      5-min Rain = 0
KTUR 210045Z 12011KT 36/13 A2967 RMK A01 T03590125  RH  025%=      5-min Rain = 0
KTUR 210050Z 12011KT 36/13 A2967 RMK A01 T03560127  RH  026%=      5-min Rain = 0
KTUR 210055Z 13011KT 35/13 A2967 RMK A01 T03540129  RH  026%=      5-min Rain = 0
KTUR 210100Z 12013G18KT 35/13 A2967 RMK A01 T03520129  RH  027%=      5-min Rain = 0
KTUR 210105Z 12011KT 35/13 A2967 RMK A01 T03480132  RH  028%=      5-min Rain = 0
KTUR 210110Z 12012KT 35/13 A2967 RMK A01 T03450132  RH  028%=      5-min Rain = 0
KTUR 210115Z 12013KT 34/13 A2967 RMK A01 T03420132  RH  029%=      5-min Rain = 0
KTUR 210120Z 12012KT 34/13 A2967 RMK A01 T03380132  RH  029%=      5-min Rain = 0
KTUR 210125Z 12013KT 34/13 A2967 RMK A01 T03360129  RH  029%=      5-min Rain = 0
KTUR 210130Z 13013KT 34/13 A2967 RMK A01 T03360129  RH  029%=      5-min Rain = 0
KTUR 210135Z 13012KT 33/13 A2967 RMK A01 T03340130  RH  030%=      5-min Rain = 0
KTUR 210140Z 13013G20KT 33/12 A2967 RMK A01 T03310124  RH  029%=      5-min Rain = 0
KTUR 210145Z 14015KT 34/11 A2967 RMK A01 T03350110  RH  026%=      5-min Rain = 0
KTUR 210150Z 14012KT 33/12 A2968 RMK A01 T03330118  RH  028%=      5-min Rain = 0
KTUR 210155Z 14012KT 33/13 A2968 RMK A01 T03270125  RH  030%=      5-min Rain = 0
KTUR 210200Z 14012KT 32/13 A2968 RMK A01 T03200131  RH  032%=      5-min Rain = 0
KTUR 210205Z 14011KT 32/13 A2968 RMK A01 T03150134  RH  034%=      5-min Rain = 0
KTUR 210210Z 14011KT 31/14 A2968 RMK A01 T03110135  RH  035%=      5-min Rain = 0
KTUR 210215Z 15011KT 31/13 A2968 RMK A01 T03100131  RH  034%=      5-min Rain = 0
KTUR 210220Z 15012KT 31/13 A2968 RMK A01 T03110125  RH  033%=      5-min Rain = 0
KTUR 210225Z 14011KT 31/12 A2968 RMK A01 T03090124  RH  033%=      5-min Rain = 0
KTUR 210230Z 15010KT 31/13 A2968 RMK A01 T03050126  RH  034%=      5-min Rain = 0
KTUR 210235Z 15009KT 30/13 A2968 RMK A01 T03000127  RH  035%=      5-min Rain = 0
KTUR 210240Z 16009KT 30/13 A2968 RMK A01 T02950129  RH  037%=      5-min Rain = 0
KTUR 210245Z 16009KT 29/13 A2969 RMK A01 T02910132  RH  038%=      5-min Rain = 0
KTUR 210250Z 16010KT 29/13 A2969 RMK A01 T02890131  RH  039%=      5-min Rain = 0
KTUR 210255Z 16009KT 29/13 A2969 RMK A01 T02870132  RH  039%=      5-min Rain = 0
KTUR 210300Z 16010KT 29/13 A2969 RMK A01 T02850131  RH  039%=      5-min Rain = 0
KTUR 210305Z 15009KT 28/13 A2969 RMK A01 T02830130  RH  040%=      5-min Rain = 0
KTUR 210310Z 15010KT 28/13 A2969 RMK A01 T02800131  RH  040%=      5-min Rain = 0
KTUR 210315Z 15009KT 28/13 A2969 RMK A01 T02780130  RH  041%=      5-min Rain = 0
KTUR 210320Z 16009KT 28/13 A2969 RMK A01 T02750130  RH  042%=      5-min Rain = 0
KTUR 210325Z 15010KT 28/13 A2969 RMK A01 T02750128  RH  041%=      5-min Rain = 0
KTUR 210330Z 16009KT 27/13 A297 RMK A01 T02740129  RH  041%=      5-min Rain = 0
KTUR 210335Z 16010KT 28/12 A297 RMK A01 T02750124  RH  040%=      5-min Rain = 0
KTUR 210340Z 16011KT 28/12 A297 RMK A01 T02790122  RH  039%=      5-min Rain = 0
KTUR 210345Z 15010KT 28/12 A297 RMK A01 T02770122  RH  039%=      5-min Rain = 0
KTUR 210350Z 15010KT 27/12 A297 RMK A01 T02730123  RH  040%=      5-min Rain = 0
KTUR 210355Z 15009KT 27/12 A297 RMK A01 T02680124  RH  042%=      5-min Rain = 0
KTUR 210400Z 15010KT 27/13 A297 RMK A01 T02650125  RH  043%=      5-min Rain = 0
KTUR 210405Z 15010KT 26/13 A297 RMK A01 T02640126  RH  043%=      5-min Rain = 0
KTUR 210410Z 15010KT 26/13 A297 RMK A01 T02630127  RH  044%=      5-min Rain = 0
KTUR 210415Z 15010KT 26/13 A297 RMK A01 T02600128  RH  045%=      5-min Rain = 0
KTUR 210420Z 15010KT 26/13 A297 RMK A01 T02600129  RH  045%=      5-min Rain = 0
KTUR 210425Z 15010KT 26/13 A297 RMK A01 T02590130  RH  046%=      5-min Rain = 0
KTUR 210430Z 15009KT 26/13 A297 RMK A01 T02580131  RH  046%=      5-min Rain = 0
KTUR 210435Z 16009KT 26/13 A297 RMK A01 T02560130  RH  046%=      5-min Rain = 0
KTUR 210440Z 16010KT 26/13 A297 RMK A01 T02570131  RH  047%=      5-min Rain = 0
KTUR 210445Z 15011KT 26/14 A297 RMK A01 T02590135  RH  047%=      5-min Rain = 0
KTUR 210450Z 15011KT 26/14 A297 RMK A01 T02580138  RH  049%=      5-min Rain = 0
KTUR 210455Z 16011KT 26/14 A297 RMK A01 T02580141  RH  049%=      5-min Rain = 0

Page generated in 0.0323 seconds.